sensor_id;sensor_type;location;lat;lon;timestamp;P1;durP1;ratioP1;P2;durP2;ratioP2
7605;SDS011;3844;53.360;9.738;2022-11-09T00:01:09;5.32;;;1.70;;
7605;SDS011;3844;53.360;9.738;2022-11-09T00:03:10;5.95;;;1.48;;
7605;SDS011;3844;53.360;9.738;2022-11-09T00:05:11;4.30;;;1.60;;
7605;SDS011;3844;53.360;9.738;2022-11-09T00:07:12;6.80;;;1.58;;
7605;SDS011;3844;53.360;9.738;2022-11-09T00:09:13;4.47;;;1.60;;
7605;SDS011;3844;53.360;9.738;2022-11-09T00:11:14;6.68;;;1.70;;
7605;SDS011;3844;53.360;9.738;2022-11-09T00:13:15;4.68;;;1.60;;
7605;SDS011;3844;53.360;9.738;2022-11-09T00:15:15;4.13;;;1.40;;
7605;SDS011;3844;53.360;9.738;2022-11-09T00:17:17;4.05;;;1.63;;
7605;SDS011;3844;53.360;9.738;2022-11-09T00:19:17;3.55;;;1.60;;
7605;SDS011;3844;53.360;9.738;2022-11-09T00:21:19;4.88;;;1.70;;
7605;SDS011;3844;53.360;9.738;2022-11-09T00:23:21;5.00;;;1.80;;
7605;SDS011;3844;53.360;9.738;2022-11-09T00:25:22;4.72;;;1.52;;
7605;SDS011;3844;53.360;9.738;2022-11-09T00:27:23;5.93;;;1.63;;
7605;SDS011;3844;53.360;9.738;2022-11-09T00:29:23;4.95;;;1.60;;
7605;SDS011;3844;53.360;9.738;2022-11-09T00:31:24;3.90;;;1.70;;
7605;SDS011;3844;53.360;9.738;2022-11-09T00:33:25;5.00;;;1.60;;
7605;SDS011;3844;53.360;9.738;2022-11-09T00:35:26;3.97;;;1.52;;
7605;SDS011;3844;53.360;9.738;2022-11-09T00:37:28;3.58;;;1.52;;
7605;SDS011;3844;53.360;9.738;2022-11-09T00:39:29;5.20;;;1.48;;
7605;SDS011;3844;53.360;9.738;2022-11-09T00:41:29;4.72;;;1.60;;
7605;SDS011;3844;53.360;9.738;2022-11-09T00:43:31;3.67;;;1.40;;
7605;SDS011;3844;53.360;9.738;2022-11-09T00:45:32;5.43;;;1.77;;
7605;SDS011;3844;53.360;9.738;2022-11-09T00:47:33;4.78;;;1.80;;
7605;SDS011;3844;53.360;9.738;2022-11-09T00:49:33;4.72;;;1.63;;
7605;SDS011;3844;53.360;9.738;2022-11-09T00:51:34;6.07;;;1.73;;
7605;SDS011;3844;53.360;9.738;2022-11-09T00:53:34;4.43;;;1.70;;
7605;SDS011;3844;53.360;9.738;2022-11-09T00:55:35;6.50;;;1.65;;
7605;SDS011;3844;53.360;9.738;2022-11-09T00:57:36;4.13;;;1.67;;
7605;SDS011;3844;53.360;9.738;2022-11-09T00:59:37;4.40;;;1.75;;
7605;SDS011;3844;53.360;9.738;2022-11-09T01:01:37;5.13;;;1.80;;
7605;SDS011;3844;53.360;9.738;2022-11-09T01:03:38;4.40;;;1.60;;
7605;SDS011;3844;53.360;9.738;2022-11-09T01:05:39;4.43;;;1.65;;
7605;SDS011;3844;53.360;9.738;2022-11-09T01:07:40;3.97;;;1.50;;
7605;SDS011;3844;53.360;9.738;2022-11-09T01:09:41;4.97;;;1.52;;
7605;SDS011;3844;53.360;9.738;2022-11-09T01:11:41;4.00;;;1.70;;
7605;SDS011;3844;53.360;9.738;2022-11-09T01:13:42;4.38;;;1.70;;
7605;SDS011;3844;53.360;9.738;2022-11-09T01:15:44;4.82;;;1.70;;
7605;SDS011;3844;53.360;9.738;2022-11-09T01:17:47;4.63;;;1.63;;
7605;SDS011;3844;53.360;9.738;2022-11-09T01:19:48;6.00;;;1.63;;
7605;SDS011;3844;53.360;9.738;2022-11-09T01:21:49;4.80;;;1.60;;
7605;SDS011;3844;53.360;9.738;2022-11-09T01:23:50;4.03;;;1.50;;
7605;SDS011;3844;53.360;9.738;2022-11-09T01:25:56;4.05;;;1.40;;
7605;SDS011;3844;53.360;9.738;2022-11-09T01:28:01;4.50;;;1.60;;
7605;SDS011;3844;53.360;9.738;2022-11-09T01:30:02;5.38;;;1.73;;
7605;SDS011;3844;53.360;9.738;2022-11-09T01:32:03;4.63;;;1.58;;
7605;SDS011;3844;53.360;9.738;2022-11-09T01:34:04;5.93;;;1.67;;
7605;SDS011;3844;53.360;9.738;2022-11-09T01:36:06;4.60;;;1.70;;
7605;SDS011;3844;53.360;9.738;2022-11-09T01:38:10;5.10;;;1.67;;
7605;SDS011;3844;53.360;9.738;2022-11-09T01:40:11;4.90;;;1.70;;
7605;SDS011;3844;53.360;9.738;2022-11-09T01:42:13;5.20;;;1.55;;
7605;SDS011;3844;53.360;9.738;2022-11-09T01:44:17;3.95;;;1.58;;
7605;SDS011;3844;53.360;9.738;2022-11-09T01:46:20;4.68;;;1.55;;
7605;SDS011;3844;53.360;9.738;2022-11-09T01:50:57;4.37;;;1.67;;
7605;SDS011;3844;53.360;9.738;2022-11-09T01:53:02;5.68;;;1.80;;
7605;SDS011;3844;53.360;9.738;2022-11-09T01:59:50;4.75;;;1.80;;
7605;SDS011;3844;53.360;9.738;2022-11-09T02:01:55;5.68;;;1.83;;
7605;SDS011;3844;53.360;9.738;2022-11-09T02:04:08;5.25;;;1.77;;
7605;SDS011;3844;53.360;9.738;2022-11-09T02:06:13;6.03;;;1.80;;
7605;SDS011;3844;53.360;9.738;2022-11-09T02:10:21;6.03;;;2.00;;
7605;SDS011;3844;53.360;9.738;2022-11-09T02:12:23;5.40;;;1.70;;
7605;SDS011;3844;53.360;9.738;2022-11-09T02:14:27;4.28;;;1.65;;
7605;SDS011;3844;53.360;9.738;2022-11-09T02:16:29;4.63;;;1.70;;
7605;SDS011;3844;53.360;9.738;2022-11-09T02:18:30;4.05;;;1.73;;
7605;SDS011;3844;53.360;9.738;2022-11-09T02:20:54;5.75;;;1.67;;
7605;SDS011;3844;53.360;9.738;2022-11-09T02:22:56;4.57;;;1.58;;
7605;SDS011;3844;53.360;9.738;2022-11-09T02:24:56;5.80;;;1.80;;
7605;SDS011;3844;53.360;9.738;2022-11-09T02:26:57;4.40;;;1.60;;
7605;SDS011;3844;53.360;9.738;2022-11-09T02:28:58;6.22;;;1.60;;
7605;SDS011;3844;53.360;9.738;2022-11-09T02:31:01;4.65;;;1.60;;
7605;SDS011;3844;53.360;9.738;2022-11-09T02:33:04;6.18;;;1.58;;
7605;SDS011;3844;53.360;9.738;2022-11-09T02:35:05;4.50;;;1.52;;
7605;SDS011;3844;53.360;9.738;2022-11-09T02:37:06;4.20;;;1.70;;
7605;SDS011;3844;53.360;9.738;2022-11-09T02:39:06;4.05;;;1.60;;
7605;SDS011;3844;53.360;9.738;2022-11-09T02:41:07;4.65;;;1.70;;
7605;SDS011;3844;53.360;9.738;2022-11-09T02:43:10;4.77;;;1.40;;
7605;SDS011;3844;53.360;9.738;2022-11-09T02:45:12;4.32;;;1.60;;
7605;SDS011;3844;53.360;9.738;2022-11-09T02:47:13;3.25;;;1.48;;
7605;SDS011;3844;53.360;9.738;2022-11-09T02:49:14;4.22;;;1.63;;
7605;SDS011;3844;53.360;9.738;2022-11-09T02:51:15;4.55;;;1.60;;
7605;SDS011;3844;53.360;9.738;2022-11-09T02:53:16;4.90;;;1.63;;
7605;SDS011;3844;53.360;9.738;2022-11-09T02:55:17;4.68;;;1.63;;
7605;SDS011;3844;53.360;9.738;2022-11-09T02:57:17;5.03;;;1.60;;
7605;SDS011;3844;53.360;9.738;2022-11-09T02:59:18;4.85;;;1.40;;
7605;SDS011;3844;53.360;9.738;2022-11-09T03:01:19;5.78;;;1.60;;
7605;SDS011;3844;53.360;9.738;2022-11-09T03:03:20;4.15;;;1.60;;
7605;SDS011;3844;53.360;9.738;2022-11-09T03:05:20;4.53;;;1.48;;
7605;SDS011;3844;53.360;9.738;2022-11-09T03:07:21;5.85;;;1.80;;
7605;SDS011;3844;53.360;9.738;2022-11-09T03:09:22;4.55;;;1.58;;
7605;SDS011;3844;53.360;9.738;2022-11-09T03:11:22;5.10;;;1.73;;
7605;SDS011;3844;53.360;9.738;2022-11-09T03:13:23;5.03;;;1.60;;
7605;SDS011;3844;53.360;9.738;2022-11-09T03:15:24;6.00;;;1.67;;
7605;SDS011;3844;53.360;9.738;2022-11-09T03:17:24;5.68;;;1.80;;
7605;SDS011;3844;53.360;9.738;2022-11-09T03:19:26;3.60;;;1.67;;
7605;SDS011;3844;53.360;9.738;2022-11-09T03:21:27;4.97;;;1.70;;
7605;SDS011;3844;53.360;9.738;2022-11-09T03:23:28;4.88;;;1.73;;
7605;SDS011;3844;53.360;9.738;2022-11-09T03:25:29;5.78;;;1.50;;
7605;SDS011;3844;53.360;9.738;2022-11-09T03:27:29;4.80;;;1.58;;
7605;SDS011;3844;53.360;9.738;2022-11-09T03:29:30;6.13;;;1.70;;
7605;SDS011;3844;53.360;9.738;2022-11-09T03:31:31;5.75;;;1.67;;
7605;SDS011;3844;53.360;9.738;2022-11-09T03:33:31;5.45;;;1.70;;
7605;SDS011;3844;53.360;9.738;2022-11-09T03:35:32;5.50;;;1.60;;
7605;SDS011;3844;53.360;9.738;2022-11-09T03:37:33;4.28;;;1.80;;
7605;SDS011;3844;53.360;9.738;2022-11-09T03:39:33;4.80;;;1.60;;
7605;SDS011;3844;53.360;9.738;2022-11-09T03:41:34;5.10;;;1.77;;
7605;SDS011;3844;53.360;9.738;2022-11-09T03:43:35;5.22;;;1.63;;
7605;SDS011;3844;53.360;9.738;2022-11-09T03:45:36;5.53;;;1.85;;
7605;SDS011;3844;53.360;9.738;2022-11-09T03:47:40;5.45;;;1.52;;
7605;SDS011;3844;53.360;9.738;2022-11-09T03:49:41;4.53;;;1.70;;
7605;SDS011;3844;53.360;9.738;2022-11-09T03:51:42;4.72;;;1.65;;
7605;SDS011;3844;53.360;9.738;2022-11-09T03:53:43;4.88;;;1.50;;
7605;SDS011;3844;53.360;9.738;2022-11-09T03:55:44;4.50;;;1.40;;
7605;SDS011;3844;53.360;9.738;2022-11-09T03:57:44;5.30;;;1.40;;
7605;SDS011;3844;53.360;9.738;2022-11-09T03:59:45;3.47;;;1.38;;
7605;SDS011;3844;53.360;9.738;2022-11-09T04:01:46;3.97;;;1.60;;
7605;SDS011;3844;53.360;9.738;2022-11-09T04:03:47;6.40;;;1.70;;
7605;SDS011;3844;53.360;9.738;2022-11-09T04:05:47;5.15;;;1.70;;
7605;SDS011;3844;53.360;9.738;2022-11-09T04:07:49;5.55;;;1.73;;
7605;SDS011;3844;53.360;9.738;2022-11-09T04:09:51;4.53;;;1.57;;
7605;SDS011;3844;53.360;9.738;2022-11-09T04:11:52;4.78;;;1.60;;
7605;SDS011;3844;53.360;9.738;2022-11-09T04:13:52;5.25;;;1.50;;
7605;SDS011;3844;53.360;9.738;2022-11-09T04:15:53;4.90;;;1.50;;
7605;SDS011;3844;53.360;9.738;2022-11-09T04:17:57;4.40;;;1.70;;
7605;SDS011;3844;53.360;9.738;2022-11-09T04:19:59;4.60;;;1.70;;
7605;SDS011;3844;53.360;9.738;2022-11-09T04:22:00;5.05;;;1.70;;
7605;SDS011;3844;53.360;9.738;2022-11-09T04:24:01;5.80;;;1.77;;
7605;SDS011;3844;53.360;9.738;2022-11-09T04:26:02;5.95;;;1.67;;
7605;SDS011;3844;53.360;9.738;2022-11-09T04:28:03;4.88;;;1.60;;
7605;SDS011;3844;53.360;9.738;2022-11-09T04:30:05;5.35;;;1.70;;
7605;SDS011;3844;53.360;9.738;2022-11-09T04:32:06;4.97;;;1.90;;
7605;SDS011;3844;53.360;9.738;2022-11-09T04:34:07;5.28;;;1.70;;
7605;SDS011;3844;53.360;9.738;2022-11-09T04:36:08;4.40;;;1.63;;
7605;SDS011;3844;53.360;9.738;2022-11-09T04:38:10;5.72;;;1.95;;
7605;SDS011;3844;53.360;9.738;2022-11-09T04:40:12;4.97;;;2.20;;
7605;SDS011;3844;53.360;9.738;2022-11-09T04:42:13;3.85;;;1.80;;
7605;SDS011;3844;53.360;9.738;2022-11-09T04:44:14;4.18;;;1.65;;
7605;SDS011;3844;53.360;9.738;2022-11-09T04:46:14;5.45;;;1.55;;
7605;SDS011;3844;53.360;9.738;2022-11-09T04:48:15;4.82;;;1.60;;
7605;SDS011;3844;53.360;9.738;2022-11-09T04:50:16;5.47;;;1.70;;
7605;SDS011;3844;53.360;9.738;2022-11-09T04:52:16;5.38;;;1.70;;
7605;SDS011;3844;53.360;9.738;2022-11-09T04:54:17;6.93;;;1.58;;
7605;SDS011;3844;53.360;9.738;2022-11-09T04:56:18;4.47;;;1.80;;
7605;SDS011;3844;53.360;9.738;2022-11-09T04:58:18;4.47;;;1.42;;
7605;SDS011;3844;53.360;9.738;2022-11-09T05:00:19;3.88;;;1.55;;
7605;SDS011;3844;53.360;9.738;2022-11-09T05:02:20;4.32;;;1.55;;
7605;SDS011;3844;53.360;9.738;2022-11-09T05:04:20;3.78;;;1.30;;
7605;SDS011;3844;53.360;9.738;2022-11-09T05:06:21;4.97;;;1.70;;
7605;SDS011;3844;53.360;9.738;2022-11-09T05:08:31;5.68;;;1.85;;
7605;SDS011;3844;53.360;9.738;2022-11-09T05:10:32;4.70;;;1.58;;
7605;SDS011;3844;53.360;9.738;2022-11-09T05:12:33;3.60;;;1.40;;
7605;SDS011;3844;53.360;9.738;2022-11-09T05:14:33;4.13;;;1.70;;
7605;SDS011;3844;53.360;9.738;2022-11-09T05:16:34;5.35;;;1.40;;
7605;SDS011;3844;53.360;9.738;2022-11-09T05:18:35;7.00;;;1.55;;
7605;SDS011;3844;53.360;9.738;2022-11-09T05:20:36;4.35;;;1.40;;
7605;SDS011;3844;53.360;9.738;2022-11-09T05:22:39;5.25;;;1.70;;
7605;SDS011;3844;53.360;9.738;2022-11-09T05:24:58;4.38;;;1.25;;
7605;SDS011;3844;53.360;9.738;2022-11-09T05:26:59;6.20;;;1.63;;
7605;SDS011;3844;53.360;9.738;2022-11-09T05:29:01;6.13;;;1.60;;
7605;SDS011;3844;53.360;9.738;2022-11-09T05:31:03;5.00;;;1.42;;
7605;SDS011;3844;53.360;9.738;2022-11-09T05:33:04;4.80;;;1.58;;
7605;SDS011;3844;53.360;9.738;2022-11-09T05:35:05;5.18;;;1.50;;
7605;SDS011;3844;53.360;9.738;2022-11-09T05:37:06;3.50;;;1.48;;
7605;SDS011;3844;53.360;9.738;2022-11-09T05:39:07;4.13;;;1.50;;
7605;SDS011;3844;53.360;9.738;2022-11-09T05:41:07;4.65;;;1.65;;
7605;SDS011;3844;53.360;9.738;2022-11-09T05:43:08;5.00;;;1.40;;
7605;SDS011;3844;53.360;9.738;2022-11-09T05:45:10;3.38;;;1.35;;
7605;SDS011;3844;53.360;9.738;2022-11-09T05:47:12;4.72;;;1.55;;
7605;SDS011;3844;53.360;9.738;2022-11-09T05:49:13;4.45;;;1.50;;
7605;SDS011;3844;53.360;9.738;2022-11-09T05:51:14;3.80;;;1.40;;
7605;SDS011;3844;53.360;9.738;2022-11-09T05:53:15;4.55;;;1.33;;
7605;SDS011;3844;53.360;9.738;2022-11-09T05:55:15;5.00;;;1.40;;
7605;SDS011;3844;53.360;9.738;2022-11-09T05:57:16;3.17;;;1.33;;
7605;SDS011;3844;53.360;9.738;2022-11-09T05:59:17;4.45;;;1.50;;
7605;SDS011;3844;53.360;9.738;2022-11-09T06:01:17;5.70;;;1.50;;
7605;SDS011;3844;53.360;9.738;2022-11-09T06:03:18;4.05;;;1.50;;
7605;SDS011;3844;53.360;9.738;2022-11-09T06:05:19;3.60;;;1.40;;
7605;SDS011;3844;53.360;9.738;2022-11-09T06:07:20;5.32;;;1.40;;
7605;SDS011;3844;53.360;9.738;2022-11-09T06:09:21;3.28;;;1.35;;
7605;SDS011;3844;53.360;9.738;2022-11-09T06:11:21;3.90;;;1.40;;
7605;SDS011;3844;53.360;9.738;2022-11-09T06:13:22;4.32;;;1.60;;
7605;SDS011;3844;53.360;9.738;2022-11-09T06:15:23;3.63;;;1.35;;
7605;SDS011;3844;53.360;9.738;2022-11-09T06:17:24;4.18;;;1.52;;
7605;SDS011;3844;53.360;9.738;2022-11-09T06:19:25;3.25;;;1.27;;
7605;SDS011;3844;53.360;9.738;2022-11-09T06:21:25;5.53;;;1.40;;
7605;SDS011;3844;53.360;9.738;2022-11-09T06:23:26;3.97;;;1.30;;
7605;SDS011;3844;53.360;9.738;2022-11-09T06:25:28;4.85;;;1.50;;
7605;SDS011;3844;53.360;9.738;2022-11-09T06:27:30;4.05;;;1.35;;
7605;SDS011;3844;53.360;9.738;2022-11-09T06:29:31;3.53;;;1.35;;
7605;SDS011;3844;53.360;9.738;2022-11-09T06:31:31;4.55;;;1.50;;
7605;SDS011;3844;53.360;9.738;2022-11-09T06:33:34;4.40;;;1.40;;
7605;SDS011;3844;53.360;9.738;2022-11-09T06:35:35;5.10;;;1.55;;
7605;SDS011;3844;53.360;9.738;2022-11-09T06:37:36;5.47;;;1.60;;
7605;SDS011;3844;53.360;9.738;2022-11-09T06:39:37;4.75;;;1.45;;
7605;SDS011;3844;53.360;9.738;2022-11-09T06:41:37;4.68;;;1.50;;
7605;SDS011;3844;53.360;9.738;2022-11-09T06:43:38;5.40;;;1.60;;
7605;SDS011;3844;53.360;9.738;2022-11-09T06:45:39;4.22;;;1.30;;
7605;SDS011;3844;53.360;9.738;2022-11-09T06:47:39;3.92;;;1.40;;
7605;SDS011;3844;53.360;9.738;2022-11-09T06:49:40;4.40;;;1.50;;
7605;SDS011;3844;53.360;9.738;2022-11-09T06:51:41;5.00;;;1.65;;
7605;SDS011;3844;53.360;9.738;2022-11-09T06:53:41;3.40;;;1.40;;
7605;SDS011;3844;53.360;9.738;2022-11-09T06:55:42;3.72;;;1.40;;
7605;SDS011;3844;53.360;9.738;2022-11-09T06:57:43;3.83;;;1.33;;
7605;SDS011;3844;53.360;9.738;2022-11-09T06:59:44;4.30;;;1.40;;
7605;SDS011;3844;53.360;9.738;2022-11-09T07:01:45;7.88;;;1.63;;
7605;SDS011;3844;53.360;9.738;2022-11-09T07:03:46;4.57;;;1.58;;
7605;SDS011;3844;53.360;9.738;2022-11-09T07:05:47;4.15;;;1.40;;
7605;SDS011;3844;53.360;9.738;2022-11-09T07:07:48;4.63;;;1.52;;
7605;SDS011;3844;53.360;9.738;2022-11-09T07:09:49;4.00;;;1.27;;
7605;SDS011;3844;53.360;9.738;2022-11-09T07:11:50;4.50;;;1.40;;
7605;SDS011;3844;53.360;9.738;2022-11-09T07:13:51;5.53;;;1.40;;
7605;SDS011;3844;53.360;9.738;2022-11-09T07:15:52;4.95;;;1.40;;
7605;SDS011;3844;53.360;9.738;2022-11-09T07:17:56;4.22;;;1.35;;
7605;SDS011;3844;53.360;9.738;2022-11-09T07:19:58;4.50;;;1.35;;
7605;SDS011;3844;53.360;9.738;2022-11-09T07:21:59;5.03;;;1.40;;
7605;SDS011;3844;53.360;9.738;2022-11-09T07:24:00;4.78;;;1.30;;
7605;SDS011;3844;53.360;9.738;2022-11-09T07:26:01;8.57;;;1.67;;
7605;SDS011;3844;53.360;9.738;2022-11-09T07:28:04;3.55;;;1.33;;
7605;SDS011;3844;53.360;9.738;2022-11-09T07:30:07;4.43;;;1.40;;
7605;SDS011;3844;53.360;9.738;2022-11-09T07:32:08;3.92;;;1.30;;
7605;SDS011;3844;53.360;9.738;2022-11-09T07:34:09;5.03;;;1.30;;
7605;SDS011;3844;53.360;9.738;2022-11-09T07:36:10;4.47;;;1.40;;
7605;SDS011;3844;53.360;9.738;2022-11-09T07:38:11;6.45;;;1.40;;
7605;SDS011;3844;53.360;9.738;2022-11-09T07:40:12;5.63;;;1.60;;
7605;SDS011;3844;53.360;9.738;2022-11-09T07:42:13;6.60;;;1.40;;
7605;SDS011;3844;53.360;9.738;2022-11-09T07:44:14;4.80;;;1.40;;
7605;SDS011;3844;53.360;9.738;2022-11-09T07:46:17;5.55;;;1.40;;
7605;SDS011;3844;53.360;9.738;2022-11-09T07:48:18;4.28;;;1.27;;
7605;SDS011;3844;53.360;9.738;2022-11-09T07:50:18;4.18;;;1.30;;
7605;SDS011;3844;53.360;9.738;2022-11-09T07:52:19;5.60;;;1.50;;
7605;SDS011;3844;53.360;9.738;2022-11-09T07:54:20;5.82;;;1.50;;
7605;SDS011;3844;53.360;9.738;2022-11-09T07:56:20;4.57;;;1.30;;
7605;SDS011;3844;53.360;9.738;2022-11-09T07:58:21;4.55;;;1.35;;
7605;SDS011;3844;53.360;9.738;2022-11-09T08:00:22;5.75;;;1.38;;
7605;SDS011;3844;53.360;9.738;2022-11-09T08:02:23;4.22;;;1.40;;
7605;SDS011;3844;53.360;9.738;2022-11-09T08:04:24;5.80;;;1.60;;
7605;SDS011;3844;53.360;9.738;2022-11-09T08:06:24;4.93;;;1.40;;
7605;SDS011;3844;53.360;9.738;2022-11-09T08:08:26;3.53;;;1.30;;
7605;SDS011;3844;53.360;9.738;2022-11-09T08:10:28;4.10;;;1.38;;
7605;SDS011;3844;53.360;9.738;2022-11-09T08:12:29;6.13;;;1.40;;
7605;SDS011;3844;53.360;9.738;2022-11-09T08:14:31;4.82;;;1.30;;
7605;SDS011;3844;53.360;9.738;2022-11-09T08:16:32;4.75;;;1.63;;
7605;SDS011;3844;53.360;9.738;2022-11-09T08:18:32;5.97;;;1.25;;
7605;SDS011;3844;53.360;9.738;2022-11-09T08:20:33;5.32;;;1.50;;
7605;SDS011;3844;53.360;9.738;2022-11-09T08:22:39;6.70;;;1.20;;
7605;SDS011;3844;53.360;9.738;2022-11-09T08:24:41;3.78;;;1.30;;
7605;SDS011;3844;53.360;9.738;2022-11-09T08:26:42;5.22;;;1.30;;
7605;SDS011;3844;53.360;9.738;2022-11-09T08:28:42;5.43;;;1.40;;
7605;SDS011;3844;53.360;9.738;2022-11-09T08:30:43;5.90;;;1.40;;
7605;SDS011;3844;53.360;9.738;2022-11-09T08:32:44;7.07;;;1.40;;
7605;SDS011;3844;53.360;9.738;2022-11-09T08:34:46;7.22;;;1.20;;
7605;SDS011;3844;53.360;9.738;2022-11-09T08:36:47;5.50;;;1.42;;
7605;SDS011;3844;53.360;9.738;2022-11-09T08:38:48;8.38;;;1.45;;
7605;SDS011;3844;53.360;9.738;2022-11-09T08:40:49;8.02;;;1.58;;
7605;SDS011;3844;53.360;9.738;2022-11-09T08:42:50;6.45;;;1.40;;
7605;SDS011;3844;53.360;9.738;2022-11-09T08:44:51;8.15;;;1.50;;
7605;SDS011;3844;53.360;9.738;2022-11-09T08:46:52;7.10;;;1.48;;
7605;SDS011;3844;53.360;9.738;2022-11-09T08:48:53;5.25;;;1.33;;
7605;SDS011;3844;53.360;9.738;2022-11-09T08:50:54;6.72;;;1.60;;
7605;SDS011;3844;53.360;9.738;2022-11-09T08:52:56;5.68;;;1.40;;
7605;SDS011;3844;53.360;9.738;2022-11-09T08:54:57;8.80;;;1.27;;
7605;SDS011;3844;53.360;9.738;2022-11-09T08:56:58;6.57;;;1.55;;
7605;SDS011;3844;53.360;9.738;2022-11-09T08:58:59;5.85;;;1.40;;
7605;SDS011;3844;53.360;9.738;2022-11-09T09:00:59;8.73;;;1.48;;
7605;SDS011;3844;53.360;9.738;2022-11-09T09:03:03;5.88;;;1.35;;
7605;SDS011;3844;53.360;9.738;2022-11-09T09:05:05;7.13;;;1.40;;
7605;SDS011;3844;53.360;9.738;2022-11-09T09:07:06;6.68;;;1.50;;
7605;SDS011;3844;53.360;9.738;2022-11-09T09:09:07;6.82;;;1.50;;
7605;SDS011;3844;53.360;9.738;2022-11-09T09:11:08;7.07;;;1.50;;
7605;SDS011;3844;53.360;9.738;2022-11-09T09:13:08;6.70;;;1.40;;
7605;SDS011;3844;53.360;9.738;2022-11-09T09:15:09;6.68;;;1.40;;
7605;SDS011;3844;53.360;9.738;2022-11-09T09:17:10;8.20;;;1.58;;
7605;SDS011;3844;53.360;9.738;2022-11-09T09:19:11;6.88;;;1.40;;
7605;SDS011;3844;53.360;9.738;2022-11-09T09:21:11;6.68;;;1.40;;
7605;SDS011;3844;53.360;9.738;2022-11-09T09:23:12;6.63;;;1.33;;
7605;SDS011;3844;53.360;9.738;2022-11-09T09:25:14;6.57;;;1.40;;
7605;SDS011;3844;53.360;9.738;2022-11-09T09:27:14;7.05;;;1.40;;
7605;SDS011;3844;53.360;9.738;2022-11-09T09:29:15;7.90;;;1.52;;
7605;SDS011;3844;53.360;9.738;2022-11-09T09:31:16;5.93;;;1.45;;
7605;SDS011;3844;53.360;9.738;2022-11-09T09:33:17;9.18;;;1.38;;
7605;SDS011;3844;53.360;9.738;2022-11-09T09:35:18;4.72;;;1.20;;
7605;SDS011;3844;53.360;9.738;2022-11-09T09:37:18;9.70;;;1.58;;
7605;SDS011;3844;53.360;9.738;2022-11-09T09:39:19;7.75;;;1.30;;
7605;SDS011;3844;53.360;9.738;2022-11-09T09:41:21;7.28;;;1.48;;
7605;SDS011;3844;53.360;9.738;2022-11-09T09:43:45;7.35;;;1.30;;
7605;SDS011;3844;53.360;9.738;2022-11-09T09:49:53;8.63;;;1.65;;
7605;SDS011;3844;53.360;9.738;2022-11-09T09:54:26;5.65;;;1.42;;
7605;SDS011;3844;53.360;9.738;2022-11-09T09:56:32;9.93;;;1.70;;
7605;SDS011;3844;53.360;9.738;2022-11-09T09:58:36;7.50;;;1.50;;
7605;SDS011;3844;53.360;9.738;2022-11-09T10:00:44;8.35;;;1.80;;
7605;SDS011;3844;53.360;9.738;2022-11-09T10:02:45;6.50;;;1.60;;
7605;SDS011;3844;53.360;9.738;2022-11-09T10:04:47;10.50;;;1.92;;
7605;SDS011;3844;53.360;9.738;2022-11-09T10:06:56;6.57;;;1.60;;
7605;SDS011;3844;53.360;9.738;2022-11-09T10:09:08;8.88;;;1.88;;
7605;SDS011;3844;53.360;9.738;2022-11-09T10:18:08;7.22;;;1.60;;
7605;SDS011;3844;53.360;9.738;2022-11-09T10:27:27;9.55;;;1.50;;
7605;SDS011;3844;53.360;9.738;2022-11-09T10:29:35;9.55;;;1.52;;
7605;SDS011;3844;53.360;9.738;2022-11-09T10:31:45;9.48;;;1.65;;
7605;SDS011;3844;53.360;9.738;2022-11-09T10:33:48;7.72;;;1.70;;
7605;SDS011;3844;53.360;9.738;2022-11-09T10:38:32;7.03;;;1.50;;
7605;SDS011;3844;53.360;9.738;2022-11-09T10:40:41;7.03;;;1.48;;
7605;SDS011;3844;53.360;9.738;2022-11-09T10:42:57;8.75;;;1.50;;
7605;SDS011;3844;53.360;9.738;2022-11-09T10:45:12;7.68;;;1.50;;
7605;SDS011;3844;53.360;9.738;2022-11-09T10:47:45;7.47;;;1.73;;
7605;SDS011;3844;53.360;9.738;2022-11-09T10:52:32;6.85;;;1.50;;
7605;SDS011;3844;53.360;9.738;2022-11-09T10:54:38;8.82;;;1.52;;
7605;SDS011;3844;53.360;9.738;2022-11-09T10:56:43;8.80;;;1.60;;
7605;SDS011;3844;53.360;9.738;2022-11-09T10:58:47;9.68;;;1.60;;
7605;SDS011;3844;53.360;9.738;2022-11-09T11:00:59;8.43;;;1.70;;
7605;SDS011;3844;53.360;9.738;2022-11-09T11:03:19;8.30;;;1.48;;
7605;SDS011;3844;53.360;9.738;2022-11-09T11:05:24;7.63;;;1.50;;
7605;SDS011;3844;53.360;9.738;2022-11-09T11:07:27;7.82;;;1.75;;
7605;SDS011;3844;53.360;9.738;2022-11-09T11:09:27;6.30;;;1.40;;
7605;SDS011;3844;53.360;9.738;2022-11-09T11:11:29;9.25;;;1.52;;
7605;SDS011;3844;53.360;9.738;2022-11-09T11:17:42;9.13;;;1.48;;
7605;SDS011;3844;53.360;9.738;2022-11-09T11:19:43;8.98;;;1.80;;
7605;SDS011;3844;53.360;9.738;2022-11-09T11:21:45;7.10;;;1.58;;
7605;SDS011;3844;53.360;9.738;2022-11-09T11:24:32;9.40;;;2.20;;
7605;SDS011;3844;53.360;9.738;2022-11-09T11:28:43;8.18;;;1.63;;
7605;SDS011;3844;53.360;9.738;2022-11-09T11:30:48;11.23;;;1.90;;
7605;SDS011;3844;53.360;9.738;2022-11-09T11:32:49;9.98;;;1.70;;
7605;SDS011;3844;53.360;9.738;2022-11-09T11:34:50;9.15;;;1.73;;
7605;SDS011;3844;53.360;9.738;2022-11-09T11:36:55;6.78;;;1.42;;
7605;SDS011;3844;53.360;9.738;2022-11-09T11:39:11;8.35;;;1.63;;
7605;SDS011;3844;53.360;9.738;2022-11-09T11:41:54;10.82;;;1.58;;
7605;SDS011;3844;53.360;9.738;2022-11-09T11:44:26;7.82;;;1.65;;
7605;SDS011;3844;53.360;9.738;2022-11-09T12:08:04;10.10;;;1.58;;
7605;SDS011;3844;53.360;9.738;2022-11-09T12:17:02;11.32;;;1.88;;
7605;SDS011;3844;53.360;9.738;2022-11-09T12:26:34;6.72;;;1.60;;
7605;SDS011;3844;53.360;9.738;2022-11-09T12:33:36;5.43;;;1.50;;
7605;SDS011;3844;53.360;9.738;2022-11-09T12:40:20;6.72;;;1.50;;
7605;SDS011;3844;53.360;9.738;2022-11-09T12:42:29;6.95;;;1.60;;
7605;SDS011;3844;53.360;9.738;2022-11-09T12:44:41;6.85;;;1.67;;
7605;SDS011;3844;53.360;9.738;2022-11-09T12:46:51;9.80;;;1.67;;
7605;SDS011;3844;53.360;9.738;2022-11-09T12:49:33;7.20;;;1.60;;
7605;SDS011;3844;53.360;9.738;2022-11-09T12:51:41;9.68;;;1.52;;
7605;SDS011;3844;53.360;9.738;2022-11-09T12:53:41;6.80;;;1.55;;
7605;SDS011;3844;53.360;9.738;2022-11-09T12:55:45;12.15;;;1.70;;
7605;SDS011;3844;53.360;9.738;2022-11-09T12:57:51;7.85;;;1.88;;
7605;SDS011;3844;53.360;9.738;2022-11-09T12:59:54;7.82;;;1.58;;
7605;SDS011;3844;53.360;9.738;2022-11-09T13:01:57;6.22;;;1.40;;
7605;SDS011;3844;53.360;9.738;2022-11-09T13:03:59;9.67;;;1.40;;
7605;SDS011;3844;53.360;9.738;2022-11-09T13:06:12;6.57;;;1.52;;
7605;SDS011;3844;53.360;9.738;2022-11-09T13:08:15;8.63;;;1.40;;
7605;SDS011;3844;53.360;9.738;2022-11-09T13:10:33;6.32;;;1.30;;
7605;SDS011;3844;53.360;9.738;2022-11-09T13:12:37;6.10;;;1.40;;
7605;SDS011;3844;53.360;9.738;2022-11-09T13:14:41;8.95;;;1.70;;
7605;SDS011;3844;53.360;9.738;2022-11-09T13:16:43;9.20;;;1.80;;
7605;SDS011;3844;53.360;9.738;2022-11-09T13:18:51;5.78;;;1.30;;
7605;SDS011;3844;53.360;9.738;2022-11-09T13:20:52;8.63;;;1.60;;
7605;SDS011;3844;53.360;9.738;2022-11-09T13:26:57;6.10;;;1.42;;
7605;SDS011;3844;53.360;9.738;2022-11-09T13:31:09;7.40;;;1.52;;
7605;SDS011;3844;53.360;9.738;2022-11-09T13:39:43;8.85;;;1.67;;
7605;SDS011;3844;53.360;9.738;2022-11-09T13:41:44;8.32;;;1.48;;
7605;SDS011;3844;53.360;9.738;2022-11-09T13:43:45;7.07;;;1.60;;
7605;SDS011;3844;53.360;9.738;2022-11-09T13:45:50;6.38;;;1.50;;
7605;SDS011;3844;53.360;9.738;2022-11-09T13:47:52;5.80;;;1.70;;
7605;SDS011;3844;53.360;9.738;2022-11-09T13:49:53;9.45;;;1.60;;
7605;SDS011;3844;53.360;9.738;2022-11-09T13:51:54;6.65;;;1.38;;
7605;SDS011;3844;53.360;9.738;2022-11-09T13:55:57;9.50;;;1.67;;
7605;SDS011;3844;53.360;9.738;2022-11-09T13:58:18;9.18;;;1.48;;
7605;SDS011;3844;53.360;9.738;2022-11-09T14:00:24;7.93;;;1.50;;
7605;SDS011;3844;53.360;9.738;2022-11-09T14:02:26;4.82;;;1.38;;
7605;SDS011;3844;53.360;9.738;2022-11-09T14:06:37;7.70;;;1.50;;
7605;SDS011;3844;53.360;9.738;2022-11-09T14:08:39;7.47;;;1.77;;
7605;SDS011;3844;53.360;9.738;2022-11-09T14:17:47;7.72;;;1.60;;
7605;SDS011;3844;53.360;9.738;2022-11-09T14:22:00;10.02;;;2.00;;
7605;SDS011;3844;53.360;9.738;2022-11-09T14:24:01;6.50;;;1.67;;
7605;SDS011;3844;53.360;9.738;2022-11-09T14:26:15;11.27;;;1.67;;
7605;SDS011;3844;53.360;9.738;2022-11-09T14:28:28;8.57;;;1.70;;
7605;SDS011;3844;53.360;9.738;2022-11-09T14:30:30;11.75;;;1.88;;
7605;SDS011;3844;53.360;9.738;2022-11-09T14:32:32;6.88;;;1.80;;
7605;SDS011;3844;53.360;9.738;2022-11-09T14:34:35;7.47;;;1.70;;
7605;SDS011;3844;53.360;9.738;2022-11-09T14:36:38;7.97;;;1.80;;